If you wish to contribute or participate in the discussions about articles you are invited to join SKYbrary as a registered user

 Actions

Troyes-Barberey Airport

From SKYbrary Wiki

LFQB
Airport
ICAO: LFQB – IATA: QYR
Summary
Name Troyes-Barberey Airport
Region Europe
Territory France FR.gif
Location , Champagne-Ardenne
Serving Troyes
Elevation 118.262 m
388 ft
388 ft118.262 m
Type medium airport
Coordinates 48° 19' 19.69" N, 4° 1' 0.13" E
Runways
Designator Length Width Surface ROPS
5/23 780 m2,559.055 ft
100 m328.084 ft
GRS /
18/36 1650 m5,413.386 ft
30 m98.425 ft
ASP /
18R/36L 900 m2,952.756 ft
100 m328.084 ft
GRS /


METAR
Observation LFQB 230830Z AUTO VRB02KT CAVOK 20/13 Q1024
Station Troyes
Date/Time 23 August 2019 08:30:00
Wind direction °
Wind speed 02 kts
Lowest cloud amount clouds and visibility OK
Temperature 20°C
Dew point 13°C
Humidity 64%
QNH 1024 hPa
Weather condition n/a